x

Middle Nomad (46004) Wave Buoy

7:00am - Mon 1st Sep 2014 All times are PDT. -7 hours from GMT.

  • Sig Wave height 9.2ft
  • Peak Period 10s
  • Wind
    22mph, 27mph gusts
  • Air Temp 58°f
  • Sea Pressure 1017.3mb
  • Middle Nomad
  • Middle Nomad

More Historic Weather Station data

Upgrade to MSW Pro to gain access to the past 30 days of data for over 8000 Wavebouys and Weather Stations around the globe.

Join Pro

Comparision Forecast

View Surf forecast
   
Mon 09/01 7:00am 9ft 10s 22 27 mph 1017.3mb 58f
6:00am 9ft 10s 18 20 mph 1016.9mb 59f
5:00am 9ft 10s 18 22 mph 1016.6mb 61f
4:00am 9.5ft 10s 20 25 mph 1016.3mb 61f
3:00am 9.5ft 9s 22 27 mph 1015.9mb 61f
2:00am 10.5ft 9s 22 25 mph 1015.6mb 61f
1:00am 10ft 10s 20 25 mph 1015.1mb 61f
12:00am 11ft 8s 22 25 mph 1014.6mb 61f
Sun 08/31 11:00pm 10.5ft 9s 22 29 mph 1013.9mb 60f
10:00pm 10.5ft 8s 22 27 mph 1013.4mb 60f
9:00pm 10.5ft 8s 22 27 mph 1013mb 61f
8:00pm 10ft 9s 22 29 mph 1012.4mb 61f
7:00pm 11ft 8s 25 31 mph 1012mb 60f
6:00pm 10ft 8s 25 29 mph 1011.3mb 61f
5:00pm 9ft 8s 25 29 mph 1010.9mb 61f
3:00pm 8.5ft 8s 25 31 mph 1010.2mb 61f
2:00pm 8.5ft 7s 25 31 mph 1009.8mb 61f
1:00pm 8ft 7s 22 27 mph 1009.4mb 62f
12:00pm 8ft 7s 22 29 mph 1008.9mb 62f
11:00am 8ft 7s 25 29 mph 1008.3mb 62f
10:00am 8ft 6s 22 29 mph 1007.7mb 61f
9:00am 7.5ft 7s 22 27 mph 1007.4mb 61f
8:00am 8ft 6s 22 27 mph 1007.2mb 61f
7:00am 8ft 12s 22 27 mph 1007.5mb 61f
6:00am 8ft 5s 27 31 mph 1007.8mb 60f
5:00am 7ft 13s 25 29 mph 1008.8mb 60f
4:00am 6.5ft 14s 25 29 mph 1009.9mb 60f
3:00am 6.5ft 8s 22 27 mph 1010.7mb 62f
2:00am 6.5ft 9s 20 25 mph 1011.5mb 61f
1:00am 6ft 9s 20 25 mph 1012.1mb 61f
12:00am 6ft 9s 16 20 mph 1012.7mb 61f
Sat 08/30 11:00pm 6ft 14s 16 18 mph 1013.2mb 61f
10:00pm 6.5ft 13s 13 18 mph 1013.6mb 61f
9:00pm 7ft 8s 13 18 mph 1013.5mb 61f
8:00pm 7ft 8s 13
mph
1013.4mb 60f
7:00pm 7ft 8s 13 16 mph 1013.6mb 60f
6:00pm 7ft 8s 13 16 mph 1013.8mb 61f
5:00pm 7ft 9s 11 13 mph 1013.8mb 61f
4:00pm 7.5ft 8s 13 16 mph 1014.1mb 61f
3:00pm 8ft 10s 13 16 mph 1014mb 61f
2:00pm 8ft 10s 13 16 mph 1013.9mb 61f
1:00pm 8ft 10s 13 16 mph 1013.6mb 60f
12:00pm 8ft 10s 13 16 mph 1013.2mb 60f
11:00am 8.5ft 11s 16 18 mph 1012.9mb 61f
10:00am 9ft 10s 16 18 mph 1012.5mb 60f
9:00am 9ft 9s 18 22 mph 1011.8mb 60f
8:00am 9ft 9s 18 22 mph 1011.5mb 60f
7:00am 9.5ft 9s 18 22 mph 1011.1mb 60f
6:00am 9ft 9s 20 22 mph 1010.5mb 60f
5:00am 9ft 8s 18 22 mph 1009.9mb 60f
4:00am 9.5ft 10s 20 25 mph 1009.7mb 60f
3:00am 10.5ft 9s 20 25 mph 1009.4mb 60f
2:00am 10ft 10s 20 25 mph 1009.2mb 60f
1:00am 10ft 8s 20 25 mph 1008.8mb 60f
12:00am 10.5ft 10s 22 27 mph 1008.7mb 60f
Fri 08/29 11:00pm 11ft 10s 22 27 mph 1008.6mb 61f
10:00pm 11ft 11s 22 29 mph 1008.4mb 61f
9:00pm 12ft 11s 22 27 mph 1008.3mb 61f
8:00pm 10.5ft 10s 22 27 mph 1008mb 61f
7:00pm 11ft 11s 25 27 mph 1007.9mb 61f
6:00pm 10.5ft 10s 22 27 mph 1007.9mb 60f
5:00pm 10.5ft 11s 22 27 mph 1007.7mb 61f
4:00pm 11.5ft 10s 22 29 mph 1007.4mb 61f
3:00pm 10.5ft 9s 27 31 mph 1007.2mb 61f
2:00pm 11ft 8s 25 29 mph 1007.1mb 61f
1:00pm 11ft 9s 25 31 mph 1007mb 60f
12:00pm 11ft 10s 25 31 mph 1007.2mb 59f
11:00am 11.5ft 9s 22 29 mph 1007.3mb 59f
10:00am 11.5ft 10s 22 29 mph 1007.2mb 61f
9:00am 11ft 10s 25 29 mph 1007.3mb 61f
8:00am 10ft 10s 25 29 mph 1007.5mb 60f
7:00am 10ft 9s 22 27 mph 1007.4mb 60f
6:00am 9.5ft 9s 18 22 mph 1007.1mb 61f
5:00am 9ft 8s 22 29 mph 1007.2mb 60f
4:00am 8.5ft 9s 22 27 mph 1007.5mb 61f
3:00am 8ft 8s 20 25 mph 1008mb 60f
2:00am 8ft 8s 22 27 mph 1008.3mb 61f
1:00am 8ft 8s 22 27 mph 1008.7mb 61f
12:00am 8ft 7s 20 25 mph 1009.1mb 61f
Thu 08/28 11:00pm 8ft 7s 22 27 mph 1009.4mb 61f
10:00pm 8.5ft 7s 20 25 mph 1009.8mb 61f
9:00pm 8ft 6s 25 34 mph 1010.1mb 60f
8:00pm 8ft 6s 25 29 mph 1010.7mb 61f
7:00pm 8ft 7s 22 29 mph 1011.3mb 61f
6:00pm 7.5ft 6s 25 29 mph 1011.9mb 60f
5:00pm 7.5ft 5s 22 27 mph 1012.7mb 60f
4:00pm 6.5ft 5s 27 36 mph 1013.4mb 60f